createdAt,value
2018-11-13T00:00:03.113Z,89.90
2018-11-13T00:02:31.520Z,90.30
2018-11-13T00:04:59.915Z,90.40
2018-11-13T00:07:28.333Z,90.30
2018-11-13T00:09:56.719Z,90.90
2018-11-13T00:12:25.268Z,91.10
2018-11-13T00:17:21.752Z,91.40
2018-11-13T00:24:46.301Z,90.60
2018-11-13T00:27:14.720Z,90.20
2018-11-13T00:29:43.088Z,90.00
2018-11-13T00:32:11.504Z,89.70
2018-11-13T00:34:39.880Z,89.60
2018-11-13T00:37:08.306Z,89.80
2018-11-13T00:39:36.689Z,89.80
2018-11-13T00:42:05.447Z,90.00
2018-11-13T00:44:33.754Z,90.70
2018-11-13T00:47:02.167Z,91.20
2018-11-13T00:49:30.559Z,90.90
2018-11-13T00:51:58.981Z,90.80
2018-11-13T00:54:27.391Z,90.80
2018-11-13T00:56:56.066Z,91.20
2018-11-13T00:59:24.457Z,91.30
2018-11-13T01:04:20.984Z,90.60
2018-11-13T01:06:49.391Z,90.60
2018-11-13T01:09:17.759Z,90.50
2018-11-13T01:11:46.238Z,90.20
2018-11-13T01:14:14.657Z,90.00
2018-11-13T01:16:43.056Z,89.70
2018-11-13T01:19:11.617Z,89.70
2018-11-13T01:21:40.032Z,89.80
2018-11-13T01:24:08.422Z,89.80
2018-11-13T01:26:36.828Z,89.60
2018-11-13T01:29:05.591Z,89.60
2018-11-13T01:31:33.967Z,89.60
2018-11-13T01:36:30.475Z,89.40
2018-11-13T01:41:27.071Z,89.00
2018-11-13T01:43:55.576Z,88.90
2018-11-13T01:46:23.995Z,88.90
2018-11-13T01:51:20.505Z,89.20
2018-11-13T01:53:48.909Z,89.00
2018-11-13T01:56:17.310Z,89.40
2018-11-13T01:58:45.721Z,89.20
2018-11-13T02:03:42.263Z,88.90
2018-11-13T02:06:10.712Z,88.90
2018-11-13T02:08:39.131Z,88.60
2018-11-13T02:11:07.915Z,88.70
2018-11-13T02:13:36.364Z,88.60
2018-11-13T02:16:04.985Z,88.70
2018-11-13T02:18:33.401Z,88.70
2018-11-13T02:21:01.838Z,89.00
2018-11-13T02:23:30.284Z,88.80
2018-11-13T02:28:26.810Z,89.10
2018-11-13T02:30:55.207Z,89.00
2018-11-13T02:33:23.748Z,88.80
2018-11-13T02:35:52.175Z,88.60
2018-11-13T02:38:20.568Z,88.50
2018-11-13T02:40:49.000Z,88.70
2018-11-13T02:43:17.407Z,88.90
2018-11-13T02:45:45.844Z,89.10
2018-11-13T02:48:14.240Z,89.00
2018-11-13T02:50:42.684Z,88.70
2018-11-13T02:53:11.104Z,88.90
2018-11-13T02:55:39.551Z,88.80
2018-11-13T03:00:36.104Z,89.80
2018-11-13T03:08:00.784Z,90.10
2018-11-13T03:10:29.243Z,90.10
2018-11-13T03:12:57.682Z,90.10
2018-11-13T03:15:26.111Z,90.00
2018-11-13T03:17:54.507Z,90.10
2018-11-13T03:20:22.951Z,90.00
2018-11-13T03:22:51.370Z,89.80
2018-11-13T03:25:20.951Z,89.40
2018-11-13T03:27:49.353Z,89.40
2018-11-13T03:32:51.048Z,89.70
2018-11-13T03:35:19.480Z,89.20
2018-11-13T03:37:47.920Z,89.20
2018-11-13T03:40:16.590Z,89.40
2018-11-13T03:42:45.873Z,89.60
2018-11-13T03:45:14.769Z,89.60
2018-11-13T03:47:43.452Z,89.70
2018-11-13T03:52:45.632Z,89.60
2018-11-13T03:55:14.420Z,89.60
2018-11-13T03:57:43.626Z,89.60
2018-11-13T04:00:13.839Z,89.40
2018-11-13T04:02:42.404Z,89.60
2018-11-13T04:05:13.155Z,89.60
2018-11-13T04:07:42.835Z,89.60
2018-11-13T04:10:12.856Z,89.40
2018-11-13T04:12:41.748Z,89.10
2018-11-13T04:15:11.940Z,89.40
2018-11-13T04:20:10.664Z,89.60
2018-11-13T04:22:39.076Z,89.50
2018-11-13T04:25:07.808Z,89.60
2018-11-13T04:27:36.395Z,89.60
2018-11-13T04:30:05.464Z,89.80
2018-11-13T04:32:33.869Z,89.70
2018-11-13T04:35:02.300Z,89.70
2018-11-13T04:37:30.725Z,89.80
2018-11-13T04:39:59.148Z,89.80
2018-11-13T04:42:27.892Z,89.40
2018-11-13T04:44:56.299Z,89.10
2018-11-13T04:47:24.704Z,89.00
2018-11-13T04:49:53.085Z,89.10
2018-11-13T04:52:21.692Z,89.20
2018-11-13T04:54:50.083Z,89.40
2018-11-13T04:57:18.500Z,89.20
2018-11-13T04:59:46.883Z,89.40
2018-11-13T05:04:43.393Z,89.10
2018-11-13T05:14:36.068Z,89.10
2018-11-13T05:22:00.725Z,89.00
2018-11-13T05:24:29.172Z,88.90
2018-11-13T05:26:57.583Z,88.70
2018-11-13T05:29:25.984Z,89.00
2018-11-13T05:31:54.409Z,89.20
2018-11-13T05:34:22.793Z,89.00
2018-11-13T05:39:19.300Z,89.00
2018-11-13T05:41:47.732Z,89.20
2018-11-13T05:44:16.160Z,89.40
2018-11-13T05:46:44.576Z,89.20
2018-11-13T05:49:12.987Z,89.20
2018-11-13T05:51:41.648Z,89.40
2018-11-13T05:54:10.028Z,89.50
2018-11-13T05:56:38.423Z,89.80
2018-11-13T06:01:34.943Z,90.60
2018-11-13T06:13:55.865Z,90.30
2018-11-13T06:18:52.373Z,90.40
2018-11-13T06:21:20.759Z,90.60
2018-11-13T06:23:49.166Z,90.40
2018-11-13T06:26:17.575Z,90.40
2018-11-13T06:28:45.980Z,90.70
2018-11-13T06:31:14.374Z,90.50
2018-11-13T06:36:10.907Z,90.30
2018-11-13T06:38:39.346Z,90.50
2018-11-13T06:41:07.712Z,90.70
2018-11-13T06:43:36.119Z,90.70
2018-11-13T06:46:04.978Z,90.80
2018-11-13T06:51:01.530Z,90.50
2018-11-13T06:53:40.620Z,90.50
2018-11-13T06:56:09.118Z,90.40
2018-11-13T06:58:37.521Z,90.40
2018-11-13T07:01:05.980Z,90.10
2018-11-13T07:03:34.478Z,89.90
2018-11-13T07:06:02.861Z,90.00
2018-11-13T07:10:59.369Z,89.40
2018-11-13T07:13:27.792Z,89.60
2018-11-13T07:15:56.556Z,89.60
2018-11-13T07:18:25.174Z,89.50
2018-11-13T07:25:49.780Z,89.00
2018-11-13T07:28:18.188Z,89.00
2018-11-13T07:30:46.675Z,89.10
2018-11-13T07:33:15.084Z,89.10
2018-11-13T07:35:43.480Z,89.20
2018-11-13T07:38:11.908Z,89.10
2018-11-13T07:40:40.320Z,88.70
2018-11-13T07:43:08.720Z,88.20
2018-11-13T07:48:05.843Z,87.60
2018-11-13T07:50:34.244Z,88.00
2018-11-13T07:53:02.662Z,88.10
2018-11-13T07:55:31.207Z,88.00
2018-11-13T07:57:59.590Z,88.00
2018-11-13T08:00:28.004Z,88.40
2018-11-13T08:02:56.727Z,88.30
2018-11-13T08:05:25.142Z,87.50
2018-11-13T08:10:21.663Z,88.40
2018-11-13T08:12:50.199Z,88.40
2018-11-13T08:20:15.995Z,88.70
2018-11-13T08:22:44.649Z,88.00
2018-11-13T08:27:41.789Z,87.00
2018-11-13T08:30:12.988Z,86.60
2018-11-13T08:32:41.467Z,87.20
2018-11-13T08:35:10.044Z,86.70
2018-11-13T08:42:35.761Z,85.30
2018-11-13T08:45:04.328Z,84.00
2018-11-13T08:50:00.943Z,83.90
2018-11-13T08:52:29.361Z,82.80
2018-11-13T08:54:57.780Z,82.90
2018-11-13T08:57:26.185Z,82.60
2018-11-13T08:59:54.629Z,81.60
2018-11-13T09:04:51.191Z,79.90
2018-11-13T09:07:19.663Z,80.20
2018-11-13T09:09:48.095Z,79.70
2018-11-13T09:12:16.608Z,78.30
2018-11-13T09:14:45.032Z,77.70
2018-11-13T09:17:13.440Z,76.90
2018-11-13T09:19:41.949Z,76.00
2018-11-13T09:22:10.605Z,75.80
2018-11-13T09:24:38.983Z,75.70
2018-11-13T09:29:35.723Z,75.90
2018-11-13T09:32:04.228Z,76.10
2018-11-13T09:34:32.622Z,76.80
2018-11-13T09:37:01.080Z,76.90
2018-11-13T09:39:29.481Z,76.90
2018-11-13T09:41:57.908Z,76.90
2018-11-13T09:44:26.320Z,76.70
2018-11-13T09:46:54.730Z,76.60
2018-11-13T09:49:23.096Z,77.10
2018-11-13T09:51:51.496Z,76.20
2018-11-13T09:54:19.908Z,75.40
2018-11-13T09:56:48.332Z,74.30
2018-11-13T09:59:16.712Z,73.20
2018-11-13T10:01:45.596Z,73.20
2018-11-13T10:04:14.247Z,73.50
2018-11-13T10:09:11.920Z,73.70
2018-11-13T10:11:41.504Z,73.00
2018-11-13T10:14:10.416Z,72.30
2018-11-13T10:16:39.579Z,72.90
2018-11-13T10:19:09.084Z,73.90
2018-11-13T10:21:38.075Z,74.60
2018-11-13T10:29:03.696Z,75.60
2018-11-13T10:31:32.163Z,75.90
2018-11-13T10:34:00.649Z,76.60
2018-11-13T10:36:29.094Z,76.80
2018-11-13T10:38:57.811Z,76.50
2018-11-13T10:41:26.251Z,77.00
2018-11-13T10:43:54.679Z,77.50
2018-11-13T10:46:23.106Z,78.10
2018-11-13T10:48:51.537Z,78.60
2018-11-13T10:51:19.981Z,79.10
2018-11-13T10:53:48.431Z,80.30
2018-11-13T10:56:16.916Z,80.30
2018-11-13T10:58:45.321Z,80.90
2018-11-13T11:01:19.160Z,81.40
2018-11-13T11:04:51.618Z,81.50
2018-11-13T11:07:20.067Z,81.40
2018-11-13T11:09:48.475Z,81.30
2018-11-13T11:12:17.399Z,81.70
2018-11-13T11:17:13.920Z,81.90
2018-11-13T11:22:10.428Z,81.60
2018-11-13T11:24:38.832Z,81.70
2018-11-13T11:29:35.372Z,81.90
2018-11-13T11:32:03.815Z,81.90
2018-11-13T11:34:32.212Z,81.20
2018-11-13T11:37:00.651Z,81.10
2018-11-13T11:41:57.150Z,81.90
2018-11-13T11:44:25.640Z,82.30
2018-11-13T11:46:53.975Z,82.10
2018-11-13T11:49:22.380Z,82.60
2018-11-13T11:51:50.786Z,82.80
2018-11-13T11:54:19.212Z,82.60
2018-11-13T11:59:15.919Z,82.60
2018-11-13T12:01:44.324Z,82.30
2018-11-13T12:04:12.752Z,82.30
2018-11-13T12:06:41.189Z,82.30
2018-11-13T12:09:10.428Z,81.80
2018-11-13T12:11:40.115Z,82.40
2018-11-13T12:19:05.637Z,82.90
2018-11-13T12:21:33.944Z,82.90
2018-11-13T12:24:03.112Z,83.00
2018-11-13T12:26:31.498Z,82.70
2018-11-13T12:28:59.939Z,82.90
2018-11-13T12:31:28.339Z,82.50
2018-11-13T12:33:56.756Z,82.80
2018-11-13T12:36:25.170Z,82.70
2018-11-13T12:38:53.580Z,82.50
2018-11-13T12:41:21.974Z,82.40
2018-11-13T12:43:50.409Z,82.00
2018-11-13T12:46:18.823Z,82.00
2018-11-13T12:48:47.271Z,82.00
2018-11-13T12:51:21.014Z,82.00
2018-11-13T12:53:49.460Z,81.90
2018-11-13T12:56:18.010Z,81.90
2018-11-13T12:58:46.479Z,82.10
2018-11-13T13:01:14.871Z,82.10
2018-11-13T13:06:11.412Z,82.10
2018-11-13T13:08:39.858Z,82.50
2018-11-13T13:11:08.440Z,82.70
2018-11-13T13:16:05.729Z,82.90
2018-11-13T13:18:34.120Z,83.00
2018-11-13T13:21:02.522Z,82.90
2018-11-13T13:23:31.644Z,83.10
2018-11-13T13:28:28.292Z,83.20
2018-11-13T13:30:57.569Z,83.20
2018-11-13T13:33:26.032Z,83.80
2018-11-13T13:36:02.627Z,83.70
2018-11-13T13:38:32.774Z,83.30
2018-11-13T13:41:02.237Z,83.20
2018-11-13T13:45:59.422Z,83.50
2018-11-13T13:48:28.168Z,83.70
2018-11-13T13:50:56.684Z,83.80
2018-11-13T13:53:25.949Z,83.80
2018-11-13T13:55:54.491Z,84.00
2018-11-13T14:00:52.640Z,84.00
2018-11-13T14:05:49.120Z,84.10
2018-11-13T14:08:18.247Z,84.30
2018-11-13T14:13:15.058Z,84.40
2018-11-13T14:15:43.523Z,84.40
2018-11-13T14:23:08.633Z,84.30
2018-11-13T14:28:05.644Z,84.50
2018-11-13T14:30:35.308Z,84.40
2018-11-13T14:33:06.064Z,84.70
2018-11-13T14:35:34.599Z,84.50
2018-11-13T14:43:01.629Z,84.70
2018-11-13T14:47:58.908Z,84.50
2018-11-13T14:50:28.889Z,84.50
2018-11-13T14:52:57.484Z,84.70
2018-11-13T14:55:28.166Z,84.70
2018-11-13T14:57:57.345Z,84.70
2018-11-13T15:00:27.037Z,84.90
2018-11-13T15:02:56.041Z,84.90
2018-11-13T15:05:25.043Z,85.10
2018-11-13T15:07:57.832Z,84.90
2018-11-13T15:10:39.700Z,85.10
2018-11-13T15:13:08.662Z,85.20
2018-11-13T15:15:37.076Z,85.10
2018-11-13T15:18:06.060Z,85.20
2018-11-13T15:23:02.615Z,85.30
2018-11-13T15:25:31.030Z,85.40
2018-11-13T15:27:59.492Z,85.40
2018-11-13T15:37:58.943Z,85.60
2018-11-13T15:40:28.778Z,85.60
2018-11-13T15:42:57.201Z,85.50
2018-11-13T15:45:25.702Z,85.60
2018-11-13T15:47:55.336Z,85.60
2018-11-13T15:50:25.155Z,85.60
2018-11-13T15:55:22.475Z,85.60
2018-11-13T15:57:51.007Z,85.60
2018-11-13T16:00:23.759Z,85.70
2018-11-13T16:02:52.466Z,85.80
2018-11-13T16:05:24.058Z,85.80
2018-11-13T16:07:55.566Z,86.00
2018-11-13T16:10:24.140Z,85.90
2018-11-13T16:12:52.611Z,86.10
2018-11-13T16:15:21.915Z,86.20
2018-11-13T16:17:51.223Z,86.10
2018-11-13T16:20:20.004Z,86.10
2018-11-13T16:25:16.877Z,86.10
2018-11-13T16:27:45.319Z,86.20
2018-11-13T16:30:15.195Z,86.50
2018-11-13T16:32:44.717Z,86.60
2018-11-13T16:35:14.236Z,86.50
2018-11-13T16:37:43.729Z,86.80
2018-11-13T16:40:14.792Z,86.70
2018-11-13T16:42:43.191Z,86.80
2018-11-13T16:47:42.663Z,86.90
2018-11-13T16:50:15.663Z,87.10
2018-11-13T16:52:44.525Z,87.00
2018-11-13T16:55:18.268Z,87.00
2018-11-13T16:57:46.690Z,86.90
2018-11-13T17:02:43.245Z,86.70
2018-11-13T17:05:13.231Z,86.80
2018-11-13T17:07:41.950Z,87.00
2018-11-13T17:12:40.596Z,87.20
2018-11-13T17:15:11.148Z,87.20
2018-11-13T17:17:40.016Z,87.20
2018-11-13T17:20:09.476Z,87.30
2018-11-13T17:22:38.559Z,87.20
2018-11-13T17:27:36.990Z,87.20
2018-11-13T17:35:03.797Z,87.00
2018-11-13T17:37:32.201Z,86.90
2018-11-13T17:40:00.616Z,87.00
2018-11-13T17:42:29.008Z,87.10
2018-11-13T17:47:25.507Z,87.30
2018-11-13T17:49:53.955Z,87.40
2018-11-13T17:52:22.344Z,87.10
2018-11-13T17:57:18.844Z,87.00
2018-11-13T17:59:47.244Z,87.10
2018-11-13T18:02:15.678Z,86.90
2018-11-13T18:04:44.252Z,87.10
2018-11-13T18:07:12.708Z,87.30
2018-11-13T18:09:41.096Z,87.30
2018-11-13T18:12:09.519Z,87.40
2018-11-13T18:17:06.095Z,87.40
2018-11-13T18:19:34.514Z,87.50
2018-11-13T18:22:03.118Z,87.70
2018-11-13T18:24:31.392Z,87.70
2018-11-13T18:26:59.864Z,87.80
2018-11-13T18:29:28.219Z,87.60
2018-11-13T18:31:56.632Z,87.70
2018-11-13T18:34:25.032Z,87.60
2018-11-13T18:36:53.455Z,87.50
2018-11-13T18:39:21.864Z,87.50
2018-11-13T18:41:50.287Z,87.70
2018-11-13T18:46:46.887Z,87.60
2018-11-13T18:49:15.332Z,87.70
2018-11-13T18:51:43.783Z,87.60
2018-11-13T18:54:12.179Z,87.60
2018-11-13T18:56:40.596Z,87.50
2018-11-13T18:59:09.206Z,87.40
2018-11-13T19:01:37.528Z,87.80
2018-11-13T19:04:05.996Z,87.40
2018-11-13T19:06:34.403Z,87.40
2018-11-13T19:09:02.838Z,87.40
2018-11-13T19:13:59.399Z,87.40
2018-11-13T19:16:27.820Z,87.30
2018-11-13T19:18:56.196Z,87.40
2018-11-13T19:23:52.731Z,87.50
2018-11-13T19:26:21.128Z,87.60
2018-11-13T19:28:49.512Z,87.70
2018-11-13T19:31:17.920Z,87.50
2018-11-13T19:36:14.807Z,87.40
2018-11-13T19:38:43.034Z,87.40
2018-11-13T19:41:11.428Z,87.50
2018-11-13T19:43:39.827Z,87.70
2018-11-13T19:46:08.289Z,88.00
2018-11-13T19:48:36.680Z,88.00
2018-11-13T19:51:05.255Z,87.80
2018-11-13T19:53:33.689Z,87.60
2018-11-13T19:58:30.297Z,87.60
2018-11-13T20:05:54.963Z,87.70
2018-11-13T20:08:23.423Z,87.80
2018-11-13T20:10:51.927Z,87.70
2018-11-13T20:13:20.549Z,88.10
2018-11-13T20:18:17.159Z,87.50
2018-11-13T20:20:45.804Z,87.40
2018-11-13T20:23:14.235Z,87.60
2018-11-13T20:25:42.675Z,87.80
2018-11-13T20:28:11.064Z,88.10
2018-11-13T20:30:40.658Z,87.80
2018-11-13T20:33:09.436Z,88.00
2018-11-13T20:35:37.967Z,87.80
2018-11-13T20:38:06.912Z,87.80
2018-11-13T20:40:36.213Z,87.70
2018-11-13T20:48:02.454Z,87.70
2018-11-13T20:53:00.302Z,88.10
2018-11-13T20:55:28.707Z,87.80
2018-11-13T20:57:57.267Z,88.20
2018-11-13T21:00:29.220Z,87.70
2018-11-13T21:02:58.013Z,87.40
2018-11-13T21:05:26.428Z,87.60
2018-11-13T21:07:55.012Z,87.70
2018-11-13T21:10:27.540Z,87.70
2018-11-13T21:12:55.927Z,87.70
2018-11-13T21:15:24.363Z,87.70
2018-11-13T21:17:52.764Z,87.70
2018-11-13T21:20:21.360Z,87.70
2018-11-13T21:22:49.764Z,87.60
2018-11-13T21:27:49.706Z,87.30
2018-11-13T21:30:19.455Z,87.40
2018-11-13T21:32:48.543Z,87.40
2018-11-13T21:35:17.231Z,87.60
2018-11-13T21:37:47.127Z,87.50
2018-11-13T21:40:18.604Z,87.60
2018-11-13T21:42:47.839Z,87.50
2018-11-13T21:45:17.067Z,87.50
2018-11-13T21:47:45.506Z,87.70
2018-11-13T21:50:15.366Z,87.70
2018-11-13T21:52:43.807Z,87.70
2018-11-13T21:55:14.113Z,87.50
2018-11-13T21:57:42.537Z,87.60
2018-11-13T22:00:13.415Z,87.60
2018-11-13T22:02:43.871Z,87.50
2018-11-13T22:07:40.360Z,87.60
2018-11-13T22:10:09.836Z,87.50
2018-11-13T22:12:38.654Z,87.70
2018-11-13T22:15:09.289Z,87.70
2018-11-13T22:20:07.284Z,87.60
2018-11-13T22:22:35.808Z,87.60
2018-11-13T22:25:04.156Z,88.00
2018-11-13T22:27:32.610Z,87.70
2018-11-13T22:30:01.227Z,87.80
2018-11-13T22:32:29.444Z,87.80
2018-11-13T22:34:57.815Z,88.00
2018-11-13T22:37:26.196Z,88.20
2018-11-13T22:39:54.974Z,88.20
2018-11-13T22:42:23.004Z,88.10
2018-11-13T22:47:19.952Z,88.00
2018-11-13T22:49:48.353Z,87.80
2018-11-13T22:52:16.748Z,87.80
2018-11-13T22:54:45.147Z,87.60
2018-11-13T22:59:41.710Z,88.10
2018-11-13T23:02:10.139Z,88.00
2018-11-13T23:07:07.105Z,87.50
2018-11-13T23:09:35.504Z,87.30
2018-11-13T23:12:03.971Z,87.60
2018-11-13T23:14:32.321Z,87.50
2018-11-13T23:17:00.720Z,87.10
2018-11-13T23:19:29.096Z,87.20
2018-11-13T23:21:57.528Z,87.50
2018-11-13T23:24:25.936Z,88.10
2018-11-13T23:26:54.338Z,88.30
2018-11-13T23:29:22.715Z,88.20
2018-11-13T23:31:51.098Z,87.80
2018-11-13T23:34:19.472Z,87.80
2018-11-13T23:36:48.132Z,88.30
2018-11-13T23:39:16.503Z,88.30
2018-11-13T23:41:44.883Z,88.10
2018-11-13T23:44:13.352Z,87.80
2018-11-13T23:46:41.728Z,87.60
2018-11-13T23:49:10.175Z,87.60
2018-11-13T23:51:38.555Z,88.10
2018-11-13T23:54:06.987Z,88.10
